Time;durP1;ratioP1;P1;durP2;ratioP2;P2;SDS_P1;SDS_P2;PMS_P1;PMS_P2;Temp;Humidity;BMP_temperature;BMP_pressure;BME280_temperature;BME280_humidity;BME280_pressure;Samples;Min_cycle;Max_cycle;Signal;HPM_P1;HPM_P2
2022/02/09 00:07:23;;;;;;;20.70;12.35;;;;;;;3.59;57.89;100184.03;5093561;28;20025;-47
2022/02/09 00:09:49;;;;;;;24.38;12.60;;;;;;;3.58;58.04;100191.94;5091838;28;20032;-48
2022/02/09 00:12:24;;;;;;;23.80;12.65;;;;;;;3.53;58.05;100188.88;5093196;28;20016;-48
2022/02/09 00:15:01;;;;;;;19.98;12.48;;;;;;;3.49;58.33;100197.84;5093157;28;20030;-49
2022/02/09 00:17:41;;;;;;;21.17;12.20;;;;;;;3.52;58.44;100187.22;5092104;28;20058;-48
2022/02/09 00:25:27;;;;;;;22.42;12.73;;;;;;;3.57;58.32;100198.91;5092936;28;20467;-47
2022/02/09 00:28:19;;;;;;;124.93;97.55;;;;;;;3.49;58.32;100196.06;5092734;28;20070;-48
2022/02/09 00:36:23;;;;;;;29.17;19.13;;;;;;;3.43;59.04;100193.94;5092745;28;20035;-50
2022/02/09 01:44:35;;;;;;;24.92;13.88;;;;;;;3.44;58.35;100176.59;5091812;28;20023;-49
2022/02/09 01:56:58;;;;;;;20.83;10.40;;;;;;;3.08;59.52;100183.63;5091692;28;19915;-49
2022/02/09 01:59:25;;;;;;;15.20;11.50;;;;;;;3.08;58.98;100181.03;5091604;28;20020;-46
2022/02/09 02:01:51;;;;;;;18.67;10.93;;;;;;;3.02;59.64;100171.97;5091625;28;20052;-46
2022/02/09 02:04:18;;;;;;;18.15;10.65;;;;;;;2.98;59.68;100166.16;5091594;28;20055;-48
2022/02/09 02:06:47;;;;;;;13.88;10.02;;;;;;;2.92;59.83;100168.41;5091544;28;20024;-47
2022/02/09 02:09:14;;;;;;;19.80;11.05;;;;;;;2.92;59.87;100171.81;5091638;28;20024;-48
2022/02/09 02:12:07;;;;;;;22.38;13.88;;;;;;;2.81;59.71;100171.78;5091529;28;20397;-46
2022/02/09 02:14:38;;;;;;;18.20;10.75;;;;;;;2.73;59.88;100176.69;5091309;28;20058;-50
2022/02/09 02:19:59;;;;;;;19.48;10.25;;;;;;;2.70;60.07;100175.16;5091446;28;20127;-46
2022/02/09 02:27:43;;;;;;;19.27;10.18;;;;;;;2.65;60.36;100160.88;5091402;28;20029;-46
2022/02/09 02:47:12;;;;;;;14.80;9.27;;;;;;;3.34;59.11;100153.97;5094871;28;20038;-48
2022/02/09 03:07:41;;;;;;;18.48;9.55;;;;;;;3.00;59.43;100140.13;5072081;28;20040;-47
2022/02/09 03:13:28;;;;;;;18.98;9.93;;;;;;;2.71;60.81;100113.78;5071898;28;20159;-48
2022/02/09 03:16:00;;;;;;;18.33;8.75;;;;;;;2.86;60.93;100120.41;5071935;28;20032;-47
2022/02/09 03:24:02;;;;;;;16.38;8.27;;;;;;;3.26;59.57;100109.63;5048735;28;20040;-46
2022/02/09 03:55:19;;;;;;;26.65;12.80;;;;;;;4.27;56.66;100076.56;5093551;28;20028;-49
2022/02/09 03:57:45;;;;;;;41.45;31.60;;;;;;;4.36;55.96;100068.81;5093485;28;20028;-48
2022/02/09 04:00:24;;;;;;;14.50;10.52;;;;;;;4.45;56.17;100074.22;5093421;28;20035;-49
2022/02/09 04:02:54;;;;;;;11.27;7.45;;;;;;;4.65;55.45;100069.97;5093489;28;20524;-47
2022/02/09 04:05:20;;;;;;;10.40;7.60;;;;;;;4.72;54.88;100064.13;5093327;28;20067;-48
2022/02/09 04:07:47;;;;;;;17.42;8.40;;;;;;;4.56;55.03;100063.75;5092027;28;20079;-48
2022/02/09 04:10:19;;;;;;;10.82;7.32;;;;;;;4.30;55.32;100065.91;5093133;28;20229;-47
2022/02/09 04:18:04;;;;;;;14.85;7.55;;;;;;;3.76;57.32;100063.31;5093141;28;20032;-48
2022/02/09 04:39:20;;;;;;;10.45;6.05;;;;;;;4.05;56.64;100039.34;5092771;28;20117;-46
2022/02/09 04:42:06;;;;;;;10.88;5.82;;;;;;;4.08;56.33;100049.47;5092684;28;20028;-48
2022/02/09 04:44:44;;;;;;;19.10;9.65;;;;;;;3.98;56.67;100043.38;5092658;28;20027;-48
2022/02/09 04:53:00;;;;;;;11.82;6.30;;;;;;;3.56;57.52;100051.06;5092778;28;20091;-48
2022/02/09 04:55:47;;;;;;;9.75;6.15;;;;;;;3.36;58.29;100052.63;5092473;28;20034;-46
2022/02/09 05:01:40;;;;;;;13.20;6.38;;;;;;;3.07;59.01;100044.53;5079727;28;20131;-48
2022/02/09 05:04:12;;;;;;;13.18;5.90;;;;;;;3.04;59.32;100049.94;5091673;28;20032;-48
2022/02/09 05:25:41;;;;;;;9.95;5.88;;;;;;;3.36;59.47;100050.88;5069576;28;20090;-47
2022/02/09 05:28:12;;;;;;;13.63;8.63;;;;;;;3.48;59.08;100053.44;5069481;28;20025;-47
2022/02/09 05:30:39;;;;;;;14.57;6.82;;;;;;;3.76;58.71;100044.28;5069439;28;20614;-49
2022/02/09 05:33:05;;;;;;;14.73;5.75;;;;;;;3.92;57.74;100049.06;5069524;28;20028;-47
2022/02/09 05:35:31;;;;;;;11.40;5.32;;;;;;;4.06;57.54;100051.38;5069000;28;20127;-48
2022/02/09 05:37:58;;;;;;;10.15;5.85;;;;;;;4.32;57.26;100053.63;5069365;28;20565;-48
2022/02/09 05:40:24;;;;;;;14.57;6.82;;;;;;;4.58;56.36;100049.69;5069392;28;20024;-47
2022/02/09 05:42:50;;;;;;;8.60;5.93;;;;;;;4.55;55.63;100054.34;5069369;28;20028;-48
2022/02/09 05:45:18;;;;;;;11.98;6.00;;;;;;;4.35;56.12;100066.38;5069360;28;20031;-47
2022/02/09 05:50:36;;;;;;;11.15;6.38;;;;;;;3.84;56.88;100065.25;5069278;28;20532;-47
2022/02/09 05:53:10;;;;;;;14.55;6.32;;;;;;;3.70;57.37;100066.38;5069343;28;20067;-48
2022/02/09 05:58:13;;;;;;;9.95;5.03;;;;;;;3.83;57.69;100074.00;5091361;28;20505;-46
2022/02/09 06:00:47;;;;;;;10.02;5.45;;;;;;;3.79;57.54;100065.63;5091730;28;20486;-48
2022/02/09 06:03:15;;;;;;;10.52;5.65;;;;;;;3.63;57.75;100064.38;5091700;28;20039;-46
2022/02/09 06:05:40;;;;;;;14.15;7.90;;;;;;;3.51;58.24;100067.00;5090262;28;20506;-47
2022/02/09 06:08:07;;;;;;;12.02;6.80;;;;;;;3.45;58.97;100071.84;5091540;28;20059;-47
2022/02/09 06:10:34;;;;;;;7.57;5.15;;;;;;;3.42;58.49;100070.34;5091443;28;20028;-48
2022/02/09 06:13:26;;;;;;;11.55;5.13;;;;;;;3.47;58.91;100069.97;5091547;28;20020;-47
2022/02/09 06:21:08;;;;;;;16.48;5.97;;;;;;;3.65;58.52;100063.31;5095389;28;20043;-48
2022/02/09 06:23:34;;;;;;;27.90;18.17;;;;;;;3.77;58.60;100061.53;5095366;28;20016;-48
2022/02/09 06:26:04;;;;;;;12.60;6.63;;;;;;;3.89;58.02;100055.34;5095315;28;20031;-47
2022/02/09 06:28:32;;;;;;;12.15;5.93;;;;;;;3.94;57.90;100047.16;5095467;28;20502;-51
2022/02/09 06:30:58;;;;;;;13.57;5.80;;;;;;;3.92;57.96;100055.06;5095127;28;20099;-46
2022/02/09 06:33:24;;;;;;;13.55;6.07;;;;;;;3.97;57.30;100060.75;5093808;28;20024;-48
2022/02/09 06:35:52;;;;;;;10.40;5.20;;;;;;;4.07;57.51;100063.44;5094789;28;20093;-46
2022/02/09 06:38:17;;;;;;;20.80;5.70;;;;;;;4.16;56.87;100065.25;5094999;28;20036;-47
2022/02/09 06:40:45;;;;;;;13.57;6.28;;;;;;;4.14;56.53;100076.72;5094998;28;20394;-46
2022/02/09 06:43:13;;;;;;;9.75;5.82;;;;;;;3.95;56.60;100069.63;5094978;28;20020;-46
2022/02/09 06:45:42;;;;;;;16.25;7.72;;;;;;;3.75;57.13;100072.03;5093551;28;20403;-47
2022/02/09 06:48:15;;;;;;;12.57;6.10;;;;;;;3.69;57.46;100069.09;5094894;28;20016;-48
2022/02/09 06:50:47;;;;;;;19.70;6.05;;;;;;;3.64;57.79;100079.81;5093451;28;20024;-48
2022/02/09 06:55:50;;;;;;;20.67;6.90;;;;;;;3.51;58.15;100085.16;5095025;28;20153;-47
2022/02/09 06:58:42;;;;;;;15.00;7.13;;;;;;;3.52;58.03;100083.38;5094729;28;20425;-46
2022/02/09 07:01:09;;;;;;;21.98;7.25;;;;;;;3.47;58.06;100075.97;5094478;28;20047;-47
2022/02/09 07:03:35;;;;;;;8.90;5.50;;;;;;;3.80;57.95;100071.66;5076342;28;20035;-48
2022/02/09 07:06:01;;;;;;;15.55;7.22;;;;;;;4.25;57.48;100081.06;5094514;28;20048;-48
2022/02/09 07:08:27;;;;;;;21.50;6.30;;;;;;;4.82;56.68;100069.38;5094550;28;20141;-46
2022/02/09 07:10:54;;;;;;;17.90;6.55;;;;;;;5.50;54.92;100067.06;5094364;28;20028;-48
2022/02/09 07:13:20;;;;;;;17.58;6.55;;;;;;;6.02;53.16;100069.50;5094390;28;20020;-47
2022/02/09 07:15:53;;;;;;;24.20;6.63;;;;;;;6.33;52.35;100070.16;5094364;28;20627;-47
2022/02/09 07:18:19;;;;;;;22.63;6.40;;;;;;;6.64;50.94;100074.38;5094417;28;20119;-48
2022/02/09 07:25:59;;;;;;;15.65;5.43;;;;;;;7.20;48.67;100078.72;5093909;28;20032;-48
2022/02/09 07:28:25;;;;;;;13.45;7.25;;;;;;;6.56;49.38;100083.75;5094209;28;20031;-49
2022/02/09 07:30:51;;;;;;;13.40;6.25;;;;;;;6.16;50.37;100083.91;5094022;28;20394;-46
2022/02/09 07:33:16;;;;;;;12.55;6.72;;;;;;;6.01;51.38;100091.28;5093934;28;20046;-47
2022/02/09 07:35:42;;;;;;;20.60;6.88;;;;;;;6.30;51.50;100088.72;5093731;28;20040;-48
2022/02/09 07:38:08;;;;;;;18.30;7.78;;;;;;;6.96;50.42;100090.50;5093932;28;20018;-47
2022/02/09 07:40:34;;;;;;;19.60;7.70;;;;;;;7.29;50.09;100090.13;5093855;28;20031;-48
2022/02/09 07:43:08;;;;;;;21.95;6.88;;;;;;;7.38;49.24;100086.63;5092480;28;20024;-49
2022/02/09 07:46:12;;;;;;;19.65;6.93;;;;;;;7.35;49.26;100095.56;5093871;28;20508;-48
2022/02/09 07:48:40;;;;;;;23.20;7.03;;;;;;;7.30;48.57;100086.53;5093567;28;20032;-48
2022/02/09 07:51:37;;;;;;;22.67;7.28;;;;;;;7.08;48.89;100083.31;5093590;28;20725;-48
2022/02/09 07:54:01;;;;;;;20.42;7.63;;;;;;;7.46;48.42;100085.91;5093467;28;20036;-47
2022/02/09 07:56:29;;;;;;;14.93;5.93;;;;;;;7.89;48.80;100085.25;5093566;28;20077;-48
2022/02/09 07:58:55;;;;;;;15.30;6.40;;;;;;;8.77;47.59;100084.50;5093459;28;20046;-49
2022/02/09 08:01:22;;;;;;;14.85;6.53;;;;;;;9.39;46.08;100084.31;5092121;28;20494;-48
2022/02/09 08:03:48;;;;;;;18.58;6.65;;;;;;;9.94;45.00;100072.50;5093409;28;20379;-48
2022/02/09 08:06:14;;;;;;;19.33;6.10;;;;;;;10.41;44.15;100077.16;5093320;28;20111;-49
2022/02/09 08:08:43;;;;;;;20.83;7.43;;;;;;;10.66;42.75;100071.88;5093348;28;20486;-47
2022/02/09 08:11:48;;;;;;;16.30;6.60;;;;;;;10.66;42.17;100075.31;5093140;28;20054;-47
2022/02/09 08:27:45;;;;;;;17.08;6.18;;;;;;;10.16;41.69;100061.41;5092971;28;20039;-48
2022/02/09 08:33:07;;;;;;;23.90;8.02;;;;;;;10.55;40.73;100054.69;5093233;28;20039;-50
2022/02/09 08:35:29;;;;;;;12.55;6.22;;;;;;;10.57;40.63;100058.78;5092237;28;20044;-47
2022/02/09 08:37:58;;;;;;;11.00;6.75;;;;;;;10.52;40.48;100058.47;5090891;28;20062;-48
2022/02/09 08:40:26;;;;;;;12.60;5.85;;;;;;;10.57;40.71;100066.66;5092730;28;20050;-48
2022/02/09 08:42:53;;;;;;;13.52;5.68;;;;;;;10.77;40.67;100063.69;5091384;28;20024;-49
2022/02/09 08:45:19;;;;;;;14.10;6.82;;;;;;;11.03;40.39;100059.97;5092637;28;20030;-48
2022/02/09 08:47:47;;;;;;;14.52;7.10;;;;;;;11.80;41.53;100063.56;5092603;28;20485;-49
2022/02/09 08:50:14;;;;;;;12.43;6.50;;;;;;;12.84;39.36;100049.91;5091208;28;20020;-49
2022/02/09 08:52:40;;;;;;;14.32;6.13;;;;;;;12.98;36.97;100056.97;5091174;28;20024;-50
2022/02/09 08:55:08;;;;;;;19.95;6.50;;;;;;;12.41;38.84;100054.09;5092433;28;20020;-49
2022/02/09 08:57:35;;;;;;;13.38;6.70;;;;;;;11.76;39.27;100056.19;5092447;28;20065;-48
2022/02/09 09:00:10;;;;;;;12.75;6.10;;;;;;;11.12;40.48;100057.16;5092343;28;20031;-48
2022/02/09 09:02:37;;;;;;;12.73;6.28;;;;;;;10.98;41.27;100057.88;5092325;28;20049;-50
2022/02/09 09:05:14;;;;;;;24.33;8.02;;;;;;;11.59;41.17;100058.13;5090998;28;20032;-48
2022/02/09 09:07:40;;;;;;;55.55;27.73;;;;;;;12.76;39.76;100068.41;5092371;28;20061;-48
2022/02/09 09:18:52;;;;;;;;;;;;;;;17.72;32.10;100051.78;5092864;28;20422;-49
2022/02/09 10:04:46;;;;;;;19.30;4.13;;;;;;;23.11;25.91;100024.31;5095788;28;20028;-51
2022/02/09 10:33:07;;;;;;;13.20;3.35;;;;;;;24.63;24.30;100027.78;5095284;28;20348;-51
2022/02/09 10:35:28;;;;;;;11.23;3.00;;;;;;;24.75;24.27;100015.00;5091667;28;20070;-51
2022/02/09 10:37:56;;;;;;;17.35;3.03;;;;;;;25.26;23.39;100028.63;5095117;28;20084;-51
2022/02/09 10:40:41;;;;;;;11.82;4.40;;;;;;;25.15;23.58;100020.75;5094980;28;20512;-51
2022/02/09 10:43:33;;;;;;;10.98;3.20;;;;;;;24.67;23.91;100021.66;5093863;28;20505;-51
2022/02/09 10:46:23;;;;;;;13.23;4.07;;;;;;;23.80;24.95;100018.31;5094946;28;20032;-50
2022/02/09 10:49:00;;;;;;;6.80;2.67;;;;;;;23.28;25.13;100022.38;5094938;28;20027;-50
2022/02/09 10:54:08;;;;;;;11.68;3.63;;;;;;;22.65;25.57;100018.34;5094853;28;20075;-51
2022/02/09 10:56:36;;;;;;;19.50;4.05;;;;;;;21.92;27.31;100015.63;5094778;28;20427;-50
2022/02/09 10:59:05;;;;;;;24.67;6.03;;;;;;;21.65;28.62;100010.09;5094651;28;20103;-51
2022/02/09 11:01:31;;;;;;;12.98;4.50;;;;;;;21.51;27.80;100010.41;5093672;28;20028;-51
2022/02/09 11:03:58;;;;;;;21.40;4.35;;;;;;;21.33;28.39;100003.38;5094562;28;20559;-49
2022/02/09 11:06:32;;;;;;;11.73;3.72;;;;;;;21.21;28.38;100004.44;5093238;28;20028;-49
2022/02/09 11:08:58;;;;;;;11.70;3.58;;;;;;;20.52;29.02;100002.47;5093242;28;20455;-49
2022/02/09 11:11:24;;;;;;;11.13;3.40;;;;;;;20.18;29.94;99998.78;5094423;28;20056;-49
2022/02/09 11:13:50;;;;;;;17.73;4.13;;;;;;;20.20;29.99;99994.81;5094417;28;20020;-51
2022/02/09 11:16:18;;;;;;;17.42;4.38;;;;;;;20.55;29.78;100002.81;5094338;28;20095;-50
2022/02/09 11:18:49;;;;;;;13.50;3.03;;;;;;;21.01;29.36;99994.22;5093216;28;20058;-50
2022/02/09 11:21:16;;;;;;;12.52;4.57;;;;;;;21.33;28.71;99986.53;5094240;28;20027;-49
2022/02/09 11:23:54;;;;;;;10.43;3.72;;;;;;;21.38;28.30;99999.97;5092871;28;20028;-51
2022/02/09 11:26:46;;;;;;;14.98;3.53;;;;;;;21.56;28.65;99982.97;5094248;28;20107;-50
2022/02/09 11:29:21;;;;;;;14.07;3.38;;;;;;;21.93;28.13;99979.81;5094234;28;20486;-49
2022/02/09 11:32:11;;;;;;;14.05;4.25;;;;;;;22.09;28.56;99976.34;5094067;28;20100;-50
2022/02/09 11:34:49;;;;;;;17.02;3.63;;;;;;;22.41;27.86;99975.75;5093756;28;20044;-49
2022/02/09 11:37:25;;;;;;;23.98;4.43;;;;;;;22.59;27.68;99958.59;5092620;28;20409;-50
2022/02/09 11:39:54;;;;;;;11.63;3.38;;;;;;;22.88;27.37;99964.59;5093947;28;20020;-49
2022/02/09 11:42:41;;;;;;;19.40;3.53;;;;;;;23.21;26.08;99948.63;5093850;28;20035;-50
2022/02/09 11:45:54;;;;;;;15.32;3.83;;;;;;;23.05;26.79;99948.47;5093736;28;20031;-49
2022/02/09 12:01:09;;;;;;;12.68;3.83;;;;;;;22.70;27.14;99936.28;5093533;28;20516;-50
2022/02/09 12:08:50;;;;;;;10.23;2.85;;;;;;;22.30;26.41;99937.34;5093532;28;20038;-49
2022/02/09 12:09:50;;;;;;;11.73;5.35;;;;;;;22.27;26.80;99937.03;5093266;28;20139;-50
2022/02/09 12:12:23;;;;;;;5.88;3.15;;;;;;;22.31;26.88;99928.25;5093154;28;20658;-50
2022/02/09 12:15:12;;;;;;;19.08;6.97;;;;;;;22.36;27.96;99929.41;5091988;28;20038;-50
2022/02/09 12:20:24;;;;;;;10.98;4.88;;;;;;;22.09;27.77;99924.72;5093204;28;20016;-50
2022/02/09 12:25:56;;;;;;;17.27;6.45;;;;;;;22.13;28.06;99918.66;5093077;28;20046;-51
2022/02/09 12:28:36;;;;;;;19.33;7.07;;;;;;;22.25;27.13;99925.78;5079719;28;20032;-51
2022/02/09 12:31:05;;;;;;;9.93;3.55;;;;;;;22.12;26.93;99919.69;5092957;28;20439;-49
2022/02/09 12:33:32;;;;;;;8.40;3.38;;;;;;;21.90;26.83;99924.19;5092651;28;20035;-50
2022/02/09 12:36:13;;;;;;;8.73;3.17;;;;;;;21.65;27.44;99917.41;5092814;28;20020;-49
2022/02/09 12:38:41;;;;;;;12.00;3.25;;;;;;;21.52;27.73;99913.19;5092780;28;20028;-51
2022/02/09 12:41:23;;;;;;;12.20;3.40;;;;;;;21.61;27.66;99913.59;5091368;28;20038;-49
2022/02/09 12:43:59;;;;;;;11.15;3.28;;;;;;;21.58;27.77;99914.06;5092636;28;20070;-50
2022/02/09 12:46:34;;;;;;;10.25;2.75;;;;;;;21.78;27.90;99910.13;5092591;28;20052;-51
2022/02/09 12:49:07;;;;;;;12.02;4.07;;;;;;;21.89;27.20;99898.50;5092661;28;20036;-49
2022/02/09 12:51:33;;;;;;;7.65;4.03;;;;;;;21.79;27.76;99903.69;5091182;28;20024;-49
2022/02/09 12:54:00;;;;;;;7.25;3.35;;;;;;;21.69;27.34;99897.16;5092556;28;20024;-49
2022/02/09 12:56:31;;;;;;;9.75;3.92;;;;;;;21.72;28.10;99887.84;5092485;28;20028;-50
2022/02/09 12:59:08;;;;;;;17.67;5.63;;;;;;;21.79;28.18;99893.81;5092447;28;20569;-50
2022/02/09 13:01:42;;;;;;;8.75;3.22;;;;;;;21.83;27.85;99878.94;5092370;28;20028;-49
2022/02/09 13:04:09;;;;;;;11.80;3.90;;;;;;;21.90;27.70;99879.56;5092363;28;20020;-50
2022/02/09 13:06:35;;;;;;;10.10;3.75;;;;;;;21.85;28.30;99874.16;5092205;28;20024;-49
2022/02/09 13:09:01;;;;;;;11.00;4.35;;;;;;;21.89;27.76;99869.94;5092269;28;20509;-49
2022/02/09 13:11:31;;;;;;;11.80;3.88;;;;;;;21.89;27.87;99871.78;5090811;28;20497;-49
2022/02/09 13:14:10;;;;;;;9.13;2.80;;;;;;;21.90;27.67;99863.53;5092275;28;20028;-49
2022/02/09 13:24:35;;;;;;;17.05;5.07;;;;;;;21.45;28.27;99855.63;5091623;28;20020;-51
2022/02/09 14:12:06;;;;;;;13.30;4.50;;;;;;;18.72;33.63;99821.53;5091497;28;20028;-49
2022/02/09 14:17:34;;;;;;;12.75;5.10;;;;;;;18.15;34.58;99833.28;5091583;28;20034;-49
2022/02/09 14:53:05;;;;;;;13.30;5.95;;;;;;;15.97;41.06;99800.81;5095185;28;20035;-49
2022/02/09 14:58:11;;;;;;;16.17;5.25;;;;;;;15.85;41.34;99804.34;5094758;28;20032;-50
2022/02/09 15:00:51;;;;;;;13.32;5.20;;;;;;;15.74;41.83;99803.13;5094965;28;20493;-50
2022/02/09 15:08:47;;;;;;;14.18;5.68;;;;;;;16.01;42.87;99798.59;5094599;28;20028;-50
2022/02/09 15:11:37;;;;;;;14.85;4.60;;;;;;;16.02;41.99;99802.03;5094253;28;20381;-49
2022/02/09 15:16:30;;;;;;;15.50;4.10;;;;;;;15.75;41.89;99804.75;5094367;28;20027;-49
2022/02/09 15:19:16;;;;;;;15.27;4.30;;;;;;;15.56;42.96;99807.19;5094303;28;20139;-49
2022/02/09 15:22:01;;;;;;;11.27;3.97;;;;;;;15.50;42.28;99799.28;5094336;28;20020;-49
2022/02/09 15:24:35;;;;;;;7.75;3.90;;;;;;;15.51;42.84;99799.06;5094303;28;20072;-49
2022/02/09 15:27:03;;;;;;;13.70;3.58;;;;;;;15.51;42.21;99787.66;5094231;28;20053;-49
2022/02/09 15:29:28;;;;;;;15.52;11.30;;;;;;;15.38;42.94;99789.28;5092829;28;20054;-50
2022/02/09 15:31:59;;;;;;;12.50;5.63;;;;;;;15.30;43.43;99794.78;5094033;28;20016;-50
2022/02/09 15:34:29;;;;;;;17.23;4.95;;;;;;;15.24;43.33;99795.59;5093799;28;20078;-48
2022/02/09 15:39:53;;;;;;;9.45;3.83;;;;;;;15.17;43.37;99794.78;5093994;28;20027;-49
2022/02/09 16:18:08;;;;;;;13.45;4.32;;;;;;;15.10;43.31;99780.75;5093265;28;20031;-48
2022/02/09 16:23:01;;;;;;;15.25;3.92;;;;;;;15.15;43.39;99784.44;5093158;28;19918;-50
2022/02/09 16:34:02;;;;;;;12.38;3.80;;;;;;;14.51;44.82;99779.63;5093020;28;20058;-50
2022/02/09 16:44:17;;;;;;;13.30;4.60;;;;;;;14.14;46.03;99784.34;5092855;28;20032;-49
2022/02/09 16:46:58;;;;;;;8.32;4.50;;;;;;;13.87;46.48;99788.69;5092681;28;20028;-47
2022/02/09 16:49:31;;;;;;;14.02;3.45;;;;;;;13.75;46.70;99797.13;5092572;28;20534;-49
2022/02/09 16:54:41;;;;;;;14.63;3.53;;;;;;;13.68;46.90;99808.63;5092861;28;20494;-48
2022/02/09 17:08:23;;;;;;;15.82;3.97;;;;;;;13.56;47.07;99811.00;5092616;28;20481;-48
2022/02/09 17:21:24;;;;;;;33.78;12.45;;;;;;;13.23;48.20;99824.69;5092134;28;20110;-48
2022/02/09 17:23:52;;;;;;;13.05;4.60;;;;;;;13.16;47.84;99827.28;5092074;28;20032;-48
2022/02/09 17:26:19;;;;;;;11.50;4.78;;;;;;;13.06;48.34;99824.16;5092014;28;20016;-48
2022/02/09 17:28:49;;;;;;;12.27;3.88;;;;;;;13.06;48.19;99833.84;5092064;28;20031;-49
2022/02/09 17:31:25;;;;;;;13.23;4.43;;;;;;;13.10;48.19;99829.84;5091947;28;20027;-49
2022/02/09 17:34:12;;;;;;;9.20;4.13;;;;;;;13.12;47.95;99838.38;5091805;28;20060;-48
2022/02/09 17:36:45;;;;;;;11.00;3.33;;;;;;;13.11;48.17;99840.19;5091649;28;20036;-48
2022/02/09 17:53:24;;;;;;;8.35;3.72;;;;;;;13.10;48.35;99846.50;5091873;28;20515;-48
2022/02/09 17:55:50;;;;;;;8.63;4.05;;;;;;;13.27;47.81;99846.22;5091783;28;20043;-50
2022/02/09 17:58:21;;;;;;;13.98;4.55;;;;;;;13.19;47.91;99849.81;5091619;28;20044;-49
2022/02/09 18:00:50;;;;;;;12.45;4.88;;;;;;;13.15;48.47;99848.56;5091786;28;20470;-49
2022/02/09 18:03:18;;;;;;;10.88;3.15;;;;;;;13.09;47.79;99844.84;5091698;28;20485;-48
2022/02/09 18:06:31;;;;;;;13.30;4.38;;;;;;;12.99;48.44;99846.97;5091697;28;20051;-48
2022/02/09 18:08:49;;;;;;;10.80;4.00;;;;;;;12.97;48.30;99844.50;5088393;28;20109;-48
2022/02/09 18:30:32;;;;;;;12.88;3.63;;;;;;;12.39;50.04;99806.78;5094447;28;20508;-48
2022/02/09 18:33:25;;;;;;;14.50;3.20;;;;;;;12.31;50.32;99812.16;5095334;28;20020;-49
2022/02/09 19:04:32;;;;;;;12.60;3.92;;;;;;;11.68;52.37;99769.63;5094718;28;20409;-48
2022/02/09 19:17:29;;;;;;;13.73;4.68;;;;;;;11.57;52.85;99763.81;5094351;28;20024;-48
2022/02/09 19:30:46;;;;;;;17.02;4.93;;;;;;;11.30;53.87;99746.00;5094181;28;20055;-49
2022/02/09 19:47:44;;;;;;;15.38;4.22;;;;;;;11.26;54.02;99768.38;5093937;28;20081;-48
2022/02/09 19:55:20;;;;;;;;;;;;;;;11.40;53.08;99778.09;5094200;28;20077;-48
2022/02/09 19:57:47;;;;;;;13.88;4.00;;;;;;;11.37;52.87;99766.13;5093686;28;19915;-49
2022/02/09 20:00:18;;;;;;;19.60;3.53;;;;;;;11.43;53.31;99769.88;5093605;28;20016;-48
2022/02/09 20:02:47;;;;;;;10.48;3.70;;;;;;;11.47;52.52;99775.56;5093603;28;20024;-48
2022/02/09 20:05:14;;;;;;;11.20;3.92;;;;;;;11.48;52.83;99753.56;5093470;28;20023;-49
2022/02/09 20:07:40;;;;;;;17.77;4.55;;;;;;;11.48;52.83;99769.31;5092138;28;20428;-49
2022/02/09 20:10:07;;;;;;;13.45;4.47;;;;;;;11.46;52.88;99751.09;5093353;28;20032;-48
2022/02/09 20:12:32;;;;;;;11.98;4.45;;;;;;;11.50;53.13;99739.22;5093255;28;20409;-49
2022/02/09 20:14:59;;;;;;;13.70;4.88;;;;;;;11.63;52.31;99753.56;5092008;28;20020;-49
2022/02/09 20:17:24;;;;;;;17.23;5.35;;;;;;;11.54;52.90;99737.06;5093217;28;20105;-47
2022/02/09 20:19:56;;;;;;;12.10;4.63;;;;;;;11.54;52.32;99737.06;5093170;28;20059;-47
2022/02/09 20:22:22;;;;;;;45.17;7.20;;;;;;;11.44;52.70;99737.31;5093215;28;20507;-48
2022/02/09 20:24:48;;;;;;;19.55;5.38;;;;;;;11.36;53.22;99730.31;5091704;28;20066;-48
2022/02/09 20:27:19;;;;;;;42.75;7.53;;;;;;;11.38;53.14;99712.56;5093061;28;20058;-48
2022/02/09 20:29:45;;;;;;;14.45;4.80;;;;;;;11.32;53.20;99731.69;5093344;28;20028;-49
2022/02/09 20:32:20;;;;;;;26.60;5.78;;;;;;;11.36;53.47;99719.81;5092695;28;20021;-48
2022/02/09 20:34:54;;;;;;;41.97;7.80;;;;;;;11.33;53.37;99717.56;5092004;28;20540;-49
2022/02/09 20:37:20;;;;;;;44.65;7.03;;;;;;;11.24;53.13;99720.44;5092907;28;20116;-48
2022/02/09 20:39:59;;;;;;;20.52;5.78;;;;;;;11.18;53.68;99748.25;5092879;28;20069;-48
2022/02/09 20:42:26;;;;;;;19.17;4.38;;;;;;;11.23;53.29;99716.16;5092789;28;20034;-48
2022/02/09 20:45:10;;;;;;;15.75;5.20;;;;;;;11.22;53.80;99704.03;5091398;28;20085;-48
2022/02/09 20:47:37;;;;;;;16.90;4.38;;;;;;;11.23;53.68;99719.63;5092691;28;20024;-48
2022/02/09 20:50:05;;;;;;;16.30;4.70;;;;;;;11.15;54.21;99722.34;5092624;28;20043;-48
2022/02/09 20:52:31;;;;;;;33.67;6.78;;;;;;;11.11;54.53;99694.78;5092488;28;20130;-48
2022/02/09 20:54:56;;;;;;;47.08;9.27;;;;;;;11.09;54.84;99681.81;5092584;28;20104;-48
2022/02/09 20:57:22;;;;;;;24.45;5.25;;;;;;;11.06;54.44;99686.63;5092492;28;20035;-48
2022/02/09 20:59:52;;;;;;;18.33;4.55;;;;;;;11.02;54.93;99665.13;5092510;28;20024;-49
2022/02/09 21:02:40;;;;;;;30.98;5.82;;;;;;;11.06;54.89;99669.03;5092357;28;20020;-49
2022/02/09 21:05:46;;;;;;;27.55;5.93;;;;;;;10.99;54.94;99671.56;5092214;28;20028;-48
2022/02/09 21:10:47;;;;;;;20.10;4.82;;;;;;;10.94;55.03;99662.59;5092297;28;20020;-50
2022/02/09 21:13:25;;;;;;;14.50;4.75;;;;;;;10.91;55.14;99653.25;5092279;28;20542;-50
2022/02/09 21:21:19;;;;;;;160.95;16.50;;;;;;;10.93;54.91;99653.91;5092166;28;20397;-47
2022/02/09 21:45:09;;;;;;;9.98;3.33;;;;;;;10.89;55.27;99705.16;5091565;28;20028;-48
2022/02/09 21:53:50;;;;;;;13.68;3.80;;;;;;;10.90;55.12;99706.78;5091907;28;20063;-49
2022/02/09 22:01:14;;;;;;;13.95;3.67;;;;;;;10.91;55.06;99711.03;5091734;28;20040;-49
2022/02/09 22:56:53;;;;;;;10.15;3.70;;;;;;;11.10;55.22;99754.38;5092544;28;20429;-48
2022/02/09 23:02:02;;;;;;;11.52;3.30;;;;;;;10.98;55.71;99769.72;5094791;28;20126;-48
